sensor_id;sensor_type;location;lat;lon;timestamp;pressure;altitude;pressure_sealevel;temperature;humidity
36748;BME280;22716;51.556;5.080;2023-02-02T00:01:46;101482.13;;;8.18;100.00
36748;BME280;22716;51.556;5.080;2023-02-02T00:04:17;101479.50;;;8.15;100.00
36748;BME280;22716;51.556;5.080;2023-02-02T00:06:46;101473.38;;;8.13;100.00
36748;BME280;22716;51.556;5.080;2023-02-02T00:09:19;101483.00;;;8.20;100.00
36748;BME280;22716;51.556;5.080;2023-02-02T00:11:48;101487.38;;;8.21;100.00
36748;BME280;22716;51.556;5.080;2023-02-02T00:14:17;101472.59;;;8.22;100.00
36748;BME280;22716;51.556;5.080;2023-02-02T00:16:47;101474.38;;;8.24;100.00
36748;BME280;22716;51.556;5.080;2023-02-02T00:19:18;101467.38;;;8.25;100.00
36748;BME280;22716;51.556;5.080;2023-02-02T00:21:47;101465.66;;;8.24;100.00
36748;BME280;22716;51.556;5.080;2023-02-02T00:24:19;101482.19;;;8.24;100.00
36748;BME280;22716;51.556;5.080;2023-02-02T00:26:50;101462.13;;;8.20;100.00
36748;BME280;22716;51.556;5.080;2023-02-02T00:29:20;101457.69;;;8.13;100.00
36748;BME280;22716;51.556;5.080;2023-02-02T00:31:49;101470.84;;;8.22;100.00
36748;BME280;22716;51.556;5.080;2023-02-02T00:34:19;101478.66;;;8.22;100.00
36748;BME280;22716;51.556;5.080;2023-02-02T00:36:48;101481.31;;;8.25;100.00
36748;BME280;22716;51.556;5.080;2023-02-02T00:39:22;101472.59;;;8.22;100.00
36748;BME280;22716;51.556;5.080;2023-02-02T00:41:51;101473.44;;;8.22;100.00
36748;BME280;22716;51.556;5.080;2023-02-02T00:44:20;101487.41;;;8.24;100.00
36748;BME280;22716;51.556;5.080;2023-02-02T00:47:02;101480.44;;;8.23;100.00
36748;BME280;22716;51.556;5.080;2023-02-02T00:49:31;101482.16;;;8.21;100.00
36748;BME280;22716;51.556;5.080;2023-02-02T00:52:00;101494.38;;;8.25;100.00
36748;BME280;22716;51.556;5.080;2023-02-02T00:54:31;101493.53;;;8.28;100.00
36748;BME280;22716;51.556;5.080;2023-02-02T00:57:00;101501.34;;;8.26;100.00
36748;BME280;22716;51.556;5.080;2023-02-02T00:59:28;101497.84;;;8.26;100.00
36748;BME280;22716;51.556;5.080;2023-02-02T01:01:57;101498.69;;;8.25;100.00
36748;BME280;22716;51.556;5.080;2023-02-02T01:04:26;101506.53;;;8.25;100.00
36748;BME280;22716;51.556;5.080;2023-02-02T01:06:55;101498.69;;;8.25;100.00
36748;BME280;22716;51.556;5.080;2023-02-02T01:09:24;101498.69;;;8.25;100.00
36748;BME280;22716;51.556;5.080;2023-02-02T01:11:55;101497.84;;;8.24;100.00
36748;BME280;22716;51.556;5.080;2023-02-02T01:14:24;101497.84;;;8.24;100.00
36748;BME280;22716;51.556;5.080;2023-02-02T01:16:53;101489.09;;;8.19;100.00
36748;BME280;22716;51.556;5.080;2023-02-02T01:19:21;101494.41;;;8.27;100.00
36748;BME280;22716;51.556;5.080;2023-02-02T01:21:50;101487.41;;;8.24;100.00
36748;BME280;22716;51.556;5.080;2023-02-02T01:24:19;101495.31;;;8.27;100.00
36748;BME280;22716;51.556;5.080;2023-02-02T01:26:48;101484.78;;;8.23;100.00
36748;BME280;22716;51.556;5.080;2023-02-02T01:29:19;101494.34;;;8.22;100.00
36748;BME280;22716;51.556;5.080;2023-02-02T01:31:48;101501.34;;;8.26;100.00
36748;BME280;22716;51.556;5.080;2023-02-02T01:34:18;101491.75;;;8.25;100.00
36748;BME280;22716;51.556;5.080;2023-02-02T01:36:46;101488.25;;;8.22;100.00
36748;BME280;22716;51.556;5.080;2023-02-02T01:39:15;101497.81;;;8.23;100.00
36748;BME280;22716;51.556;5.080;2023-02-02T01:41:44;101489.13;;;8.21;100.00
36748;BME280;22716;51.556;5.080;2023-02-02T01:47:15;101497.78;;;8.18;100.00
36748;BME280;22716;51.556;5.080;2023-02-02T01:49:46;101502.16;;;8.22;100.00
36748;BME280;22716;51.556;5.080;2023-02-02T01:52:16;101487.34;;;8.18;100.00
36748;BME280;22716;51.556;5.080;2023-02-02T01:54:50;101494.28;;;8.16;100.00
36748;BME280;22716;51.556;5.080;2023-02-02T01:57:22;101489.03;;;8.13;100.00
36748;BME280;22716;51.556;5.080;2023-02-02T01:59:54;101478.59;;;8.13;100.00
36748;BME280;22716;51.556;5.080;2023-02-02T02:02:27;101481.22;;;8.16;100.00
36748;BME280;22716;51.556;5.080;2023-02-02T02:04:59;101484.72;;;8.17;100.00
36748;BME280;22716;51.556;5.080;2023-02-02T02:07:29;101489.09;;;8.19;100.00
36748;BME280;22716;51.556;5.080;2023-02-02T02:09:58;101490.84;;;8.20;100.00
36748;BME280;22716;51.556;5.080;2023-02-02T02:12:27;101496.03;;;8.17;100.00
36748;BME280;22716;51.556;5.080;2023-02-02T02:14:55;101490.81;;;8.17;100.00
36748;BME280;22716;51.556;5.080;2023-02-02T02:17:51;101493.44;;;8.16;100.00
36748;BME280;22716;51.556;5.080;2023-02-02T02:20:35;101492.53;;;8.15;100.00
36748;BME280;22716;51.556;5.080;2023-02-02T02:24:08;101490.78;;;8.14;100.00
36748;BME280;22716;51.556;5.080;2023-02-02T02:27:33;101479.41;;;8.08;100.00
36748;BME280;22716;51.556;5.080;2023-02-02T02:30:22;101486.41;;;8.13;100.00
36748;BME280;22716;51.556;5.080;2023-02-02T02:33:02;101491.66;;;8.15;100.00
36748;BME280;22716;51.556;5.080;2023-02-02T02:35:35;101496.00;;;8.14;100.00
36748;BME280;22716;51.556;5.080;2023-02-02T02:38:11;101490.75;;;8.10;100.00
36748;BME280;22716;51.556;5.080;2023-02-02T02:40:46;101503.84;;;8.13;100.00
36748;BME280;22716;51.556;5.080;2023-02-02T02:43:21;101508.19;;;8.14;100.00
36748;BME280;22716;51.556;5.080;2023-02-02T02:45:51;101507.28;;;8.12;100.00
36748;BME280;22716;51.556;5.080;2023-02-02T02:48:23;101513.41;;;8.12;100.00
36748;BME280;22716;51.556;5.080;2023-02-02T02:50:52;101506.41;;;8.10;100.00
36748;BME280;22716;51.556;5.080;2023-02-02T02:53:21;101493.34;;;8.08;100.00
36748;BME280;22716;51.556;5.080;2023-02-02T02:55:56;101500.31;;;8.11;100.00
36748;BME280;22716;51.556;5.080;2023-02-02T02:58:34;101501.16;;;8.08;100.00
36748;BME280;22716;51.556;5.080;2023-02-02T03:01:08;101491.59;;;8.09;100.00
36748;BME280;22716;51.556;5.080;2023-02-02T03:03:57;101495.09;;;8.11;100.00
36748;BME280;22716;51.556;5.080;2023-02-02T03:06:36;101502.06;;;8.12;100.00
36748;BME280;22716;51.556;5.080;2023-02-02T03:09:10;101488.09;;;8.04;100.00
36748;BME280;22716;51.556;5.080;2023-02-02T03:11:40;101500.31;;;8.11;100.00
36748;BME280;22716;51.556;5.080;2023-02-02T03:14:09;101501.19;;;8.11;100.00
36748;BME280;22716;51.556;5.080;2023-02-02T03:16:38;101502.03;;;8.10;100.00
36748;BME280;22716;51.556;5.080;2023-02-02T03:19:10;101498.59;;;8.11;100.00
36748;BME280;22716;51.556;5.080;2023-02-02T03:21:38;101497.75;;;8.12;100.00
36748;BME280;22716;51.556;5.080;2023-02-02T03:24:07;101494.22;;;8.10;100.00
36748;BME280;22716;51.556;5.080;2023-02-02T03:26:36;101504.66;;;8.10;100.00
36748;BME280;22716;51.556;5.080;2023-02-02T03:29:05;101495.94;;;8.08;100.00
36748;BME280;22716;51.556;5.080;2023-02-02T03:31:34;101498.59;;;8.10;100.00
36748;BME280;22716;51.556;5.080;2023-02-02T03:34:03;101489.88;;;8.11;100.00
36748;BME280;22716;51.556;5.080;2023-02-02T03:36:34;101477.69;;;8.10;100.00
36748;BME280;22716;51.556;5.080;2023-02-02T03:39:03;101484.66;;;8.11;100.00
36748;BME280;22716;51.556;5.080;2023-02-02T03:41:32;101490.75;;;8.11;100.00
36748;BME280;22716;51.556;5.080;2023-02-02T03:44:00;101493.38;;;8.11;100.00
36748;BME280;22716;51.556;5.080;2023-02-02T03:46:29;101491.56;;;8.06;100.00
36748;BME280;22716;51.556;5.080;2023-02-02T03:48:58;101506.41;;;8.11;100.00
36748;BME280;22716;51.556;5.080;2023-02-02T03:51:26;101513.38;;;8.11;100.00
36748;BME280;22716;51.556;5.080;2023-02-02T03:53:58;101513.34;;;8.08;100.00
36748;BME280;22716;51.556;5.080;2023-02-02T03:56:26;101516.84;;;8.10;100.00
36748;BME280;22716;51.556;5.080;2023-02-02T03:58:55;101520.31;;;8.10;100.00
36748;BME280;22716;51.556;5.080;2023-02-02T04:01:26;101524.69;;;8.11;100.00
36748;BME280;22716;51.556;5.080;2023-02-02T04:03:57;101520.31;;;8.10;100.00
36748;BME280;22716;51.556;5.080;2023-02-02T04:06:26;101525.53;;;8.10;100.00
36748;BME280;22716;51.556;5.080;2023-02-02T04:08:54;101522.94;;;8.13;100.00
36748;BME280;22716;51.556;5.080;2023-02-02T04:11:26;101518.63;;;8.14;100.00
36748;BME280;22716;51.556;5.080;2023-02-02T04:13:55;101524.69;;;8.10;100.00
36748;BME280;22716;51.556;5.080;2023-02-02T04:16:23;101527.28;;;8.11;100.00
36748;BME280;22716;51.556;5.080;2023-02-02T04:18:52;101515.09;;;8.10;100.00
36748;BME280;22716;51.556;5.080;2023-02-02T04:21:21;101517.75;;;8.12;100.00
36748;BME280;22716;51.556;5.080;2023-02-02T04:23:49;101531.66;;;8.12;100.00
36748;BME280;22716;51.556;5.080;2023-02-02T04:26:18;101507.22;;;8.04;100.00
36748;BME280;22716;51.556;5.080;2023-02-02T04:28:52;101535.16;;;8.14;100.00
36748;BME280;22716;51.556;5.080;2023-02-02T04:31:21;101532.53;;;8.14;100.00
36748;BME280;22716;51.556;5.080;2023-02-02T04:33:52;101533.41;;;8.12;100.00
36748;BME280;22716;51.556;5.080;2023-02-02T04:36:21;101534.31;;;8.15;100.00
36748;BME280;22716;51.556;5.080;2023-02-02T04:38:50;101522.94;;;8.07;100.00
36748;BME280;22716;51.556;5.080;2023-02-02T04:41:19;101537.75;;;8.11;100.00
36748;BME280;22716;51.556;5.080;2023-02-02T04:43:48;101537.75;;;8.11;100.00
36748;BME280;22716;51.556;5.080;2023-02-02T04:46:20;101529.88;;;8.08;100.00
36748;BME280;22716;51.556;5.080;2023-02-02T04:51:29;101520.34;;;8.12;100.00
36748;BME280;22716;51.556;5.080;2023-02-02T04:53:58;101510.72;;;8.08;100.00
36748;BME280;22716;51.556;5.080;2023-02-02T04:56:26;101511.63;;;8.10;100.00
36748;BME280;22716;51.556;5.080;2023-02-02T04:58:56;101512.47;;;8.07;100.00
36748;BME280;22716;51.556;5.080;2023-02-02T05:01:25;101510.75;;;8.09;100.00
36748;BME280;22716;51.556;5.080;2023-02-02T05:03:55;101516.84;;;8.11;100.00
36748;BME280;22716;51.556;5.080;2023-02-02T05:06:25;101516.78;;;8.05;100.00
36748;BME280;22716;51.556;5.080;2023-02-02T05:08:56;101529.03;;;8.09;100.00
36748;BME280;22716;51.556;5.080;2023-02-02T05:11:26;101534.25;;;8.11;100.00
36748;BME280;22716;51.556;5.080;2023-02-02T05:13:55;101531.63;;;8.11;100.00
36748;BME280;22716;51.556;5.080;2023-02-02T05:16:24;101507.16;;;8.00;100.00
36748;BME280;22716;51.556;5.080;2023-02-02T05:18:54;101538.63;;;8.12;100.00
36748;BME280;22716;51.556;5.080;2023-02-02T05:21:24;101533.38;;;8.10;100.00
36748;BME280;22716;51.556;5.080;2023-02-02T05:23:53;101536.88;;;8.12;100.00
36748;BME280;22716;51.556;5.080;2023-02-02T05:26:25;101535.13;;;8.11;100.00
36748;BME280;22716;51.556;5.080;2023-02-02T05:28:55;101536.00;;;8.12;100.00
36748;BME280;22716;51.556;5.080;2023-02-02T05:31:24;101533.41;;;8.13;100.00
36748;BME280;22716;51.556;5.080;2023-02-02T05:33:52;101534.28;;;8.14;100.00
36748;BME280;22716;51.556;5.080;2023-02-02T05:36:21;101532.47;;;8.08;100.00
36748;BME280;22716;51.556;5.080;2023-02-02T05:38:50;101538.59;;;8.10;100.00
36748;BME280;22716;51.556;5.080;2023-02-02T05:41:18;101535.97;;;8.10;100.00
36748;BME280;22716;51.556;5.080;2023-02-02T05:43:50;101539.47;;;8.09;100.00
36748;BME280;22716;51.556;5.080;2023-02-02T05:46:19;101545.53;;;8.08;100.00
36748;BME280;22716;51.556;5.080;2023-02-02T05:48:47;101532.44;;;8.05;100.00
36748;BME280;22716;51.556;5.080;2023-02-02T05:51:19;101542.03;;;8.06;100.00
36748;BME280;22716;51.556;5.080;2023-02-02T05:53:49;101539.47;;;8.09;100.00
36748;BME280;22716;51.556;5.080;2023-02-02T05:56:18;101549.03;;;8.10;100.00
36748;BME280;22716;51.556;5.080;2023-02-02T05:58:46;101546.44;;;8.13;100.00
36748;BME280;22716;51.556;5.080;2023-02-02T06:01:18;101544.72;;;8.12;100.00
36748;BME280;22716;51.556;5.080;2023-02-02T06:03:47;101544.69;;;8.11;100.00
36748;BME280;22716;51.556;5.080;2023-02-02T06:06:15;101553.41;;;8.11;100.00
36748;BME280;22716;51.556;5.080;2023-02-02T06:08:44;101535.97;;;8.10;100.00
36748;BME280;22716;51.556;5.080;2023-02-02T06:11:14;101546.41;;;8.10;100.00
36748;BME280;22716;51.556;5.080;2023-02-02T06:13:44;101546.41;;;8.10;100.00
36748;BME280;22716;51.556;5.080;2023-02-02T06:16:13;101550.78;;;8.10;100.00
36748;BME280;22716;51.556;5.080;2023-02-02T06:18:45;101543.81;;;8.09;100.00
36748;BME280;22716;51.556;5.080;2023-02-02T06:21:14;101555.97;;;8.08;100.00
36748;BME280;22716;51.556;5.080;2023-02-02T06:23:44;101551.59;;;8.06;100.00
36748;BME280;22716;51.556;5.080;2023-02-02T06:26:14;101549.00;;;8.04;100.00
36748;BME280;22716;51.556;5.080;2023-02-02T06:28:48;101541.09;;;8.00;100.00
36748;BME280;22716;51.556;5.080;2023-02-02T06:31:17;101548.91;;;8.00;100.00
36748;BME280;22716;51.556;5.080;2023-02-02T06:33:52;101541.94;;;7.97;100.00
36748;BME280;22716;51.556;5.080;2023-02-02T06:36:21;101544.50;;;7.94;100.00
36748;BME280;22716;51.556;5.080;2023-02-02T06:38:51;101555.84;;;7.95;100.00
36748;BME280;22716;51.556;5.080;2023-02-02T06:41:20;101552.31;;;7.91;100.00
36748;BME280;22716;51.556;5.080;2023-02-02T06:43:50;101568.00;;;7.94;100.00
36748;BME280;22716;51.556;5.080;2023-02-02T06:46:19;101574.94;;;7.92;100.00
36748;BME280;22716;51.556;5.080;2023-02-02T06:48:50;101583.66;;;7.94;100.00
36748;BME280;22716;51.556;5.080;2023-02-02T06:51:19;101592.31;;;7.93;100.00
36748;BME280;22716;51.556;5.080;2023-02-02T06:53:48;101585.38;;;7.94;100.00
36748;BME280;22716;51.556;5.080;2023-02-02T06:56:17;101586.28;;;7.97;100.00
36748;BME280;22716;51.556;5.080;2023-02-02T06:58:47;101571.34;;;7.84;100.00
36748;BME280;22716;51.556;5.080;2023-02-02T07:01:16;101594.09;;;7.94;100.00
36748;BME280;22716;51.556;5.080;2023-02-02T07:03:50;101585.34;;;7.90;100.00
36748;BME280;22716;51.556;5.080;2023-02-02T07:06:20;101600.19;;;7.95;100.00
36748;BME280;22716;51.556;5.080;2023-02-02T07:08:50;101595.84;;;7.97;100.00
36748;BME280;22716;51.556;5.080;2023-02-02T07:11:19;101592.38;;;7.96;100.00
36748;BME280;22716;51.556;5.080;2023-02-02T07:13:48;101587.09;;;7.92;100.00
36748;BME280;22716;51.556;5.080;2023-02-02T07:16:18;101594.94;;;7.92;100.00
36748;BME280;22716;51.556;5.080;2023-02-02T07:18:46;101588.84;;;7.91;100.00
36748;BME280;22716;51.556;5.080;2023-02-02T07:21:20;101586.25;;;7.94;100.00
36748;BME280;22716;51.556;5.080;2023-02-02T07:23:50;101588.00;;;7.94;100.00
36748;BME280;22716;51.556;5.080;2023-02-02T07:26:19;101580.13;;;7.90;100.00
36748;BME280;22716;51.556;5.080;2023-02-02T07:28:47;101592.31;;;7.92;100.00
36748;BME280;22716;51.556;5.080;2023-02-02T07:31:18;101591.44;;;7.93;100.00
36748;BME280;22716;51.556;5.080;2023-02-02T07:33:47;101592.28;;;7.88;100.00
36748;BME280;22716;51.556;5.080;2023-02-02T07:36:20;101597.50;;;7.90;100.00
36748;BME280;22716;51.556;5.080;2023-02-02T07:38:52;101601.88;;;7.91;100.00
36748;BME280;22716;51.556;5.080;2023-02-02T07:41:22;101611.44;;;7.90;100.00
36748;BME280;22716;51.556;5.080;2023-02-02T07:43:52;101599.22;;;7.88;100.00
36748;BME280;22716;51.556;5.080;2023-02-02T07:46:21;101605.34;;;7.90;100.00
36748;BME280;22716;51.556;5.080;2023-02-02T07:48:52;101603.59;;;7.89;100.00
36748;BME280;22716;51.556;5.080;2023-02-02T07:51:24;101578.25;;;7.77;100.00
36748;BME280;22716;51.556;5.080;2023-02-02T07:53:54;101607.13;;;7.94;100.00
36748;BME280;22716;51.556;5.080;2023-02-02T07:56:25;101606.28;;;7.95;100.00
36748;BME280;22716;51.556;5.080;2023-02-02T07:58:55;101608.03;;;7.96;100.00
36748;BME280;22716;51.556;5.080;2023-02-02T08:01:26;101600.19;;;7.96;100.00
36748;BME280;22716;51.556;5.080;2023-02-02T08:03:57;101605.44;;;7.99;100.00
36748;BME280;22716;51.556;5.080;2023-02-02T08:06:32;101611.59;;;8.03;100.00
36748;BME280;22716;51.556;5.080;2023-02-02T08:09:03;101612.41;;;7.99;100.00
36748;BME280;22716;51.556;5.080;2023-02-02T08:11:33;101627.28;;;8.06;100.00
36748;BME280;22716;51.556;5.080;2023-02-02T08:14:03;101637.75;;;8.07;100.00
36748;BME280;22716;51.556;5.080;2023-02-02T08:16:33;101633.38;;;8.08;100.00
36748;BME280;22716;51.556;5.080;2023-02-02T08:19:02;101622.97;;;8.09;100.00
36748;BME280;22716;51.556;5.080;2023-02-02T08:21:34;101622.91;;;8.03;100.00
36748;BME280;22716;51.556;5.080;2023-02-02T08:24:03;101633.44;;;8.09;100.00
36748;BME280;22716;51.556;5.080;2023-02-02T08:26:32;101626.47;;;8.11;100.00
36748;BME280;22716;51.556;5.080;2023-02-02T08:29:06;101629.97;;;8.13;100.00
36748;BME280;22716;51.556;5.080;2023-02-02T08:31:36;101638.69;;;8.12;100.00
36748;BME280;22716;51.556;5.080;2023-02-02T08:34:06;101634.38;;;8.16;100.00
36748;BME280;22716;51.556;5.080;2023-02-02T08:36:37;101630.94;;;8.18;100.00
36748;BME280;22716;51.556;5.080;2023-02-02T08:39:09;101639.63;;;8.19;100.00
36748;BME280;22716;51.556;5.080;2023-02-02T08:41:39;101645.66;;;8.16;100.00
36748;BME280;22716;51.556;5.080;2023-02-02T08:44:11;101649.19;;;8.18;100.00
36748;BME280;22716;51.556;5.080;2023-02-02T08:46:41;101662.25;;;8.20;100.00
36748;BME280;22716;51.556;5.080;2023-02-02T08:49:10;101665.78;;;8.25;100.00
36748;BME280;22716;51.556;5.080;2023-02-02T08:51:41;101678.06;;;8.27;100.00
36748;BME280;22716;51.556;5.080;2023-02-02T08:54:10;101676.28;;;8.26;100.00
36748;BME280;22716;51.556;5.080;2023-02-02T08:56:39;101679.72;;;8.25;100.00
36748;BME280;22716;51.556;5.080;2023-02-02T08:59:08;101674.50;;;8.24;100.00
36748;BME280;22716;51.556;5.080;2023-02-02T09:01:36;101687.66;;;8.30;100.00
36748;BME280;22716;51.556;5.080;2023-02-02T09:04:06;101689.41;;;8.29;100.00
36748;BME280;22716;51.556;5.080;2023-02-02T09:06:37;101699.06;;;8.36;100.00
36748;BME280;22716;51.556;5.080;2023-02-02T09:09:12;101705.22;;;8.41;100.00
36748;BME280;22716;51.556;5.080;2023-02-02T09:11:42;101702.59;;;8.43;100.00
36748;BME280;22716;51.556;5.080;2023-02-02T09:14:12;101706.94;;;8.42;100.00
36748;BME280;22716;51.556;5.080;2023-02-02T09:16:41;101706.06;;;8.40;100.00
36748;BME280;22716;51.556;5.080;2023-02-02T09:19:10;101718.28;;;8.43;100.00
36748;BME280;22716;51.556;5.080;2023-02-02T09:21:39;101713.09;;;8.46;100.00
36748;BME280;22716;51.556;5.080;2023-02-02T09:24:12;101730.53;;;8.49;100.00
36748;BME280;22716;51.556;5.080;2023-02-02T09:26:42;101718.34;;;8.48;100.00
36748;BME280;22716;51.556;5.080;2023-02-02T09:29:13;101726.16;;;8.46;100.00
36748;BME280;22716;51.556;5.080;2023-02-02T09:31:42;101722.81;;;8.58;100.00
36748;BME280;22716;51.556;5.080;2023-02-02T09:34:13;101732.44;;;8.63;100.00
36748;BME280;22716;51.556;5.080;2023-02-02T09:36:43;101734.25;;;8.66;100.00
36748;BME280;22716;51.556;5.080;2023-02-02T09:39:14;101736.03;;;8.73;100.00
36748;BME280;22716;51.556;5.080;2023-02-02T09:42:04;101731.69;;;8.72;100.00
36748;BME280;22716;51.556;5.080;2023-02-02T09:44:52;101742.97;;;8.68;100.00
36748;BME280;22716;51.556;5.080;2023-02-02T09:47:26;101756.94;;;8.71;100.00
36748;BME280;22716;51.556;5.080;2023-02-02T09:50:02;101751.69;;;8.68;100.00
36748;BME280;22716;51.556;5.080;2023-02-02T09:52:35;101756.03;;;8.68;100.00
36748;BME280;22716;51.556;5.080;2023-02-02T09:55:14;101755.94;;;8.63;100.00
36748;BME280;22716;51.556;5.080;2023-02-02T09:57:48;101775.22;;;8.73;100.00
36748;BME280;22716;51.556;5.080;2023-02-02T10:00:24;101778.69;;;8.69;100.00
36748;BME280;22716;51.556;5.080;2023-02-02T10:02:58;101775.16;;;8.67;100.00
36748;BME280;22716;51.556;5.080;2023-02-02T10:05:39;101780.47;;;8.73;100.00
36748;BME280;22716;51.556;5.080;2023-02-02T10:08:14;101769.13;;;8.72;100.00
36748;BME280;22716;51.556;5.080;2023-02-02T10:10:48;101757.78;;;8.70;100.00
36748;BME280;22716;51.556;5.080;2023-02-02T10:13:22;101748.28;;;8.77;100.00
36748;BME280;22716;51.556;5.080;2023-02-02T10:15:58;101756.16;;;8.81;100.00
36748;BME280;22716;51.556;5.080;2023-02-02T10:18:38;101760.59;;;8.87;100.00
36748;BME280;22716;51.556;5.080;2023-02-02T10:21:12;101755.34;;;8.87;100.00
36748;BME280;22716;51.556;5.080;2023-02-02T10:23:44;101757.13;;;8.89;100.00
36748;BME280;22716;51.556;5.080;2023-02-02T10:26:19;101759.81;;;8.94;100.00
36748;BME280;22716;51.556;5.080;2023-02-02T10:28:56;101759.84;;;8.97;100.00
36748;BME280;22716;51.556;5.080;2023-02-02T10:31:39;101750.28;;;9.02;100.00
36748;BME280;22716;51.556;5.080;2023-02-02T10:34:14;101760.81;;;9.07;100.00
36748;BME280;22716;51.556;5.080;2023-02-02T10:39:53;101771.25;;;9.05;100.00
36748;BME280;22716;51.556;5.080;2023-02-02T10:42:34;101756.38;;;8.98;100.00
36748;BME280;22716;51.556;5.080;2023-02-02T10:45:14;101777.34;;;9.04;100.00
36748;BME280;22716;51.556;5.080;2023-02-02T10:47:45;101780.78;;;9.01;100.00
36748;BME280;22716;51.556;5.080;2023-02-02T10:50:16;101778.13;;;8.98;100.00
36748;BME280;22716;51.556;5.080;2023-02-02T10:52:48;101782.56;;;9.06;100.00
36748;BME280;22716;51.556;5.080;2023-02-02T10:55:25;101798.25;;;9.06;100.00
36748;BME280;22716;51.556;5.080;2023-02-02T10:58:10;101780.78;;;9.00;100.00
36748;BME280;22716;51.556;5.080;2023-02-02T11:00:46;101789.53;;;9.04;100.00
36748;BME280;22716;51.556;5.080;2023-02-02T11:03:18;101787.78;;;9.01;100.00
36748;BME280;22716;51.556;5.080;2023-02-02T11:05:48;101791.34;;;9.09;100.00
36748;BME280;22716;51.556;5.080;2023-02-02T11:08:32;101786.97;;;9.07;100.00
36748;BME280;22716;51.556;5.080;2023-02-02T11:11:10;101786.13;;;9.12;100.00
36748;BME280;22716;51.556;5.080;2023-02-02T11:13:46;101799.22;;;9.14;100.00
36748;BME280;22716;51.556;5.080;2023-02-02T11:16:23;101795.75;;;9.16;100.00
36748;BME280;22716;51.556;5.080;2023-02-02T11:18:53;101795.78;;;9.19;100.00
36748;BME280;22716;51.556;5.080;2023-02-02T11:21:24;101787.94;;;9.18;100.00
36748;BME280;22716;51.556;5.080;2023-02-02T11:23:56;101786.25;;;9.21;100.00
36748;BME280;22716;51.556;5.080;2023-02-02T11:26:40;101760.00;;;9.12;100.00
36748;BME280;22716;51.556;5.080;2023-02-02T11:29:19;101762.72;;;9.21;100.00
36748;BME280;22716;51.556;5.080;2023-02-02T11:31:50;101777.56;;;9.28;100.00
36748;BME280;22716;51.556;5.080;2023-02-02T11:34:21;101782.84;;;9.30;100.00
36748;BME280;22716;51.556;5.080;2023-02-02T11:37:04;101781.09;;;9.30;100.00
36748;BME280;22716;51.556;5.080;2023-02-02T11:39:37;101782.03;;;9.38;100.00
36748;BME280;22716;51.556;5.080;2023-02-02T11:42:11;101782.91;;;9.37;100.00
36748;BME280;22716;51.556;5.080;2023-02-02T11:44:45;101773.31;;;9.38;100.00
36748;BME280;22716;51.556;5.080;2023-02-02T11:47:23;101775.94;;;9.36;100.00
36748;BME280;22716;51.556;5.080;2023-02-02T11:49:53;101767.16;;;9.30;100.00
36748;BME280;22716;51.556;5.080;2023-02-02T11:52:25;101774.97;;;9.28;100.00
36748;BME280;22716;51.556;5.080;2023-02-02T11:54:56;101772.34;;;9.28;100.00
36748;BME280;22716;51.556;5.080;2023-02-02T11:57:28;101763.59;;;9.23;100.00
36748;BME280;22716;51.556;5.080;2023-02-02T12:00:19;101775.84;;;9.27;100.00
36748;BME280;22716;51.556;5.080;2023-02-02T12:02:51;101785.38;;;9.24;100.00
36748;BME280;22716;51.556;5.080;2023-02-02T12:05:34;101780.97;;;9.18;100.00
36748;BME280;22716;51.556;5.080;2023-02-02T12:08:04;101783.56;;;9.17;100.00
36748;BME280;22716;51.556;5.080;2023-02-02T12:10:40;101780.97;;;9.18;100.00
36748;BME280;22716;51.556;5.080;2023-02-02T12:13:16;101792.31;;;9.20;100.00
36748;BME280;22716;51.556;5.080;2023-02-02T12:15:58;101787.94;;;9.19;100.00
36748;BME280;22716;51.556;5.080;2023-02-02T12:18:39;101774.88;;;9.19;100.00
36748;BME280;22716;51.556;5.080;2023-02-02T12:21:18;101768.78;;;9.20;100.00
36748;BME280;22716;51.556;5.080;2023-02-02T12:24:01;101743.41;;;9.10;100.00
36748;BME280;22716;51.556;5.080;2023-02-02T12:26:34;101769.63;;;9.18;100.00
36748;BME280;22716;51.556;5.080;2023-02-02T12:29:28;101763.53;;;9.17;100.00
36748;BME280;22716;51.556;5.080;2023-02-02T12:32:32;101765.28;;;9.20;100.00
36748;BME280;22716;51.556;5.080;2023-02-02T12:35:21;101764.38;;;9.16;100.00
36748;BME280;22716;51.556;5.080;2023-02-02T12:38:00;101769.63;;;9.18;100.00
36748;BME280;22716;51.556;5.080;2023-02-02T12:40:47;101765.25;;;9.17;100.00
36748;BME280;22716;51.556;5.080;2023-02-02T12:43:26;101764.41;;;9.19;100.00
36748;BME280;22716;51.556;5.080;2023-02-02T12:46:22;101766.16;;;9.20;100.00
36748;BME280;22716;51.556;5.080;2023-02-02T12:49:12;101754.78;;;9.12;100.00
36748;BME280;22716;51.556;5.080;2023-02-02T12:51:58;101768.63;;;9.05;100.00
36748;BME280;22716;51.556;5.080;2023-02-02T12:54:45;101759.91;;;9.05;100.00
36748;BME280;22716;51.556;5.080;2023-02-02T12:57:21;101756.41;;;9.02;100.00
36748;BME280;22716;51.556;5.080;2023-02-02T13:00:11;101757.22;;;8.98;100.00
36748;BME280;22716;51.556;5.080;2023-02-02T13:02:57;101745.00;;;8.94;100.00
36748;BME280;22716;51.556;5.080;2023-02-02T13:05:42;101750.13;;;8.85;100.00
36748;BME280;22716;51.556;5.080;2023-02-02T13:08:17;101753.66;;;8.90;100.00
36748;BME280;22716;51.556;5.080;2023-02-02T13:10:52;101746.66;;;8.86;100.00
36748;BME280;22716;51.556;5.080;2023-02-02T13:13:24;101725.63;;;8.74;100.00
36748;BME280;22716;51.556;5.080;2023-02-02T13:15:58;101742.28;;;8.87;100.00
36748;BME280;22716;51.556;5.080;2023-02-02T13:18:34;101745.81;;;8.89;100.00
36748;BME280;22716;51.556;5.080;2023-02-02T13:21:10;101740.59;;;8.90;100.00
36748;BME280;22716;51.556;5.080;2023-02-02T13:23:44;101750.16;;;8.88;100.00
36748;BME280;22716;51.556;5.080;2023-02-02T13:26:18;101745.81;;;8.90;100.00
36748;BME280;22716;51.556;5.080;2023-02-02T13:28:50;101751.16;;;8.98;100.00